Time;durP1;ratioP1;P1;durP2;ratioP2;P2;SDS_P1;SDS_P2;PMS_P1;PMS_P2;Temp;Humidity;BMP_temperature;BMP_pressure;BME280_temperature;BME280_humidity;BME280_pressure;Samples;Min_cycle;Max_cycle;Signal;HPM_P1;HPM_P2
2023/01/12 00:02:05;;;;;;;;;;;;;;;6.63;100.00;100170.22;5005090;28;19921;-63
2023/01/12 00:04:30;;;;;;;;;;;;;;;6.59;100.00;100172.06;4996821;28;20296;-63
2023/01/12 00:06:56;;;;;;;;;;;;;;;6.56;100.00;100167.06;5009058;28;19922;-62
2023/01/12 00:09:21;;;;;;;;;;;;;;;6.51;100.00;100157.88;5011059;28;19995;-62
2023/01/12 00:11:46;;;;;;;;;;;;;;;6.60;100.00;100143.06;5024635;28;19990;-62
2023/01/12 00:14:12;;;;;;;;;;;;;;;6.68;100.00;100144.50;5009912;28;20375;-64
2023/01/12 00:16:37;;;;;;;;;;;;;;;6.68;100.00;100149.59;5021802;28;20011;-63
2023/01/12 00:19:15;;;;;;;;;;;;;;;6.71;100.00;100144.34;5008162;28;19924;-63
2023/01/12 00:24:16;;;;;;;;;;;;;;;6.69;100.00;100144.44;5012304;28;20009;-62
2023/01/12 00:26:42;;;;;;;;;;;;;;;6.75;100.00;100156.97;5002836;28;19918;-62
2023/01/12 00:29:07;;;;;;;;;;;;;;;6.75;100.00;100154.41;4992805;28;20008;-62
2023/01/12 00:31:32;;;;;;;;;;;;;;;6.73;100.00;100150.25;5018772;28;20343;-66
2023/01/12 00:33:57;;;;;;;;;;;;;;;6.78;100.00;100156.88;5016824;28;19917;-62
2023/01/12 00:36:23;;;;;;;;;;;;;;;6.82;100.00;100159.31;4996910;28;19918;-62
2023/01/12 00:38:48;;;;;;;;;;;;;;;6.87;100.00;100147.16;5009050;28;20007;-62
2023/01/12 00:45:20;;;;;;;;;;;;;;;6.87;100.00;100152.28;5013338;28;20398;-63
2023/01/12 00:46:45;;;;;;;;;;;;;;;6.94;100.00;100146.03;5007464;28;20373;-62
2023/01/12 00:49:10;;;;;;;;;;;;;;;6.99;100.00;100139.03;5006322;28;19918;-62
2023/01/12 00:51:35;;;;;;;;;;;;;;;6.99;100.00;100135.66;5022452;28;19985;-61
2023/01/12 00:54:03;;;;;;;;;;;;;;;7.01;100.00;100126.16;5009005;28;19917;-61
2023/01/12 00:56:29;;;;;;;;;;;;;;;7.01;100.00;100133.84;5006771;28;19925;-62
2023/01/12 00:58:54;;;;;;;;;;;;;;;7.03;100.00;100137.19;4997240;28;20289;-61
2023/01/12 01:01:19;;;;;;;;;;;;;;;7.03;100.00;100127.81;5023154;28;20299;-62
2023/01/12 01:03:44;;;;;;;;;;;;;;;7.02;100.00;100130.41;4980056;28;20029;-61
2023/01/12 01:06:09;;;;;;;;;;;;;;;7.05;100.00;100133.66;4996962;28;20390;-62
2023/01/12 01:08:35;;;;;;;;;;;;;;;7.09;100.00;100137.78;4994262;28;20310;-61
2023/01/12 01:11:05;;;;;;;;;;;;;;;7.09;100.00;100125.00;5037334;28;20446;-61
2023/01/12 01:13:30;;;;;;;;;;;;;;;7.08;100.00;100128.44;5018670;28;19927;-61
2023/01/12 01:15:59;;;;;;;;;;;;;;;7.05;100.00;100126.00;5010667;28;19996;-62
2023/01/12 01:18:25;;;;;;;;;;;;;;;7.06;100.00;100130.22;5012406;28;20289;-61
2023/01/12 01:20:50;;;;;;;;;;;;;;;7.17;100.00;100121.28;5002723;28;19925;-61
2023/01/12 01:23:16;;;;;;;;;;;;;;;7.09;100.00;100119.03;5011518;28;20289;-62
2023/01/12 01:25:41;;;;;;;;;;;;;;;7.10;100.00;100121.53;4999716;28;19949;-61
2023/01/12 01:28:06;;;;;;;;;;;;;;;7.08;100.00;100123.34;5011201;28;20389;-61
2023/01/12 01:30:33;;;;;;;;;;;;;;;7.14;100.00;100126.53;5009810;28;19924;-61
2023/01/12 01:32:58;;;;;;;;;;;;;;;7.05;100.00;100126.00;5035213;28;19928;-61
2023/01/12 01:35:24;;;;;;;;;;;;;;;7.08;100.00;100122.47;5008128;28;19918;-62
2023/01/12 01:37:49;;;;;;;;;;;;;;;7.07;100.00;100123.38;5006529;28;20008;-62
2023/01/12 01:40:14;;;;;;;;;;;;;;;7.08;100.00;100115.66;5004750;28;19917;-62
2023/01/12 01:42:40;;;;;;;;;;;;;;;7.11;100.00;100125.75;5024349;28;19921;-62
2023/01/12 01:45:06;;;;;;;;;;;;;;;7.13;100.00;100117.19;5012171;28;20419;-61
2023/01/12 01:47:37;;;;;;;;;;;;;;;7.17;100.00;100129.81;5010892;28;19925;-61
2023/01/12 01:50:04;;;;;;;;;;;;;;;7.15;100.00;100117.97;5008549;28;20377;-65
2023/01/12 01:52:33;;;;;;;;;;;;;;;7.26;100.00;100115.81;5026787;28;19923;-62
2023/01/12 01:55:01;;;;;;;;;;;;;;;7.27;100.00;100120.84;5012211;28;19917;-62
2023/01/12 01:57:30;;;;;;;;;;;;;;;7.30;100.00;100113.97;5008673;28;19983;-62
2023/01/12 01:59:57;;;;;;;;;;;;;;;7.38;100.00;100117.88;5001714;28;20312;-62
2023/01/12 02:02:24;;;;;;;;;;;;;;;7.38;100.00;100107.63;5016984;28;20099;-62
2023/01/12 02:04:49;;;;;;;;;;;;;;;7.46;100.00;100107.31;5012269;28;20032;-62
2023/01/12 02:07:14;;;;;;;;;;;;;;;7.41;100.00;100107.50;4998463;28;20437;-62
2023/01/12 02:09:39;;;;;;;;;;;;;;;7.35;100.00;100100.06;5012110;28;19928;-61
2023/01/12 02:17:52;;;;;;;;;;;;;;;7.38;100.00;100099.94;5010553;28;19922;-61
2023/01/12 02:20:35;;;;;;;;;;;;;;;7.33;100.00;100093.34;4988906;28;19921;-63
2023/01/12 02:23:01;;;;;;;;;;;;;;;7.21;100.00;100075.06;5015487;28;19917;-62
2023/01/12 02:25:37;;;;;;;;;;;;;;;7.21;100.00;100075.06;4993550;28;19929;-61
2023/01/12 02:28:05;;;;;;;;;;;;;;;7.18;100.00;100079.47;4996688;28;19921;-63
2023/01/12 02:30:46;;;;;;;;;;;;;;;7.21;100.00;100074.22;4994809;28;20436;-62
2023/01/12 02:33:26;;;;;;;;;;;;;;;7.16;100.00;100069.28;5018129;28;19918;-61
2023/01/12 02:36:00;;;;;;;;;;;;;;;7.17;100.00;100065.00;5026156;28;19925;-65
2023/01/12 02:38:46;;;;;;;;;;;;;;;7.20;100.00;100065.72;5027955;28;19918;-62
2023/01/12 02:41:12;;;;;;;;;;;;;;;7.18;100.00;100051.31;5005768;28;19944;-62
2023/01/12 02:43:38;;;;;;;;;;;;;;;7.18;100.00;100064.97;5010145;28;19921;-61
2023/01/12 02:46:36;;;;;;;;;;;;;;;7.14;100.00;100062.59;4995557;28;19918;-62
2023/01/12 02:49:06;;;;;;;;;;;;;;;7.14;100.00;100070.25;4972648;28;19940;-62
2023/01/12 02:52:07;;;;;;;;;;;;;;;7.19;100.00;100066.59;4976097;28;19953;-62
2023/01/12 02:54:33;;;;;;;;;;;;;;;7.24;100.00;100066.41;4953054;29;19929;-64
2023/01/12 02:57:01;;;;;;;;;;;;;;;7.22;100.00;100074.16;4954057;29;19919;-62
2023/01/12 02:59:29;;;;;;;;;;;;;;;7.26;100.00;100075.69;4932468;29;20023;-61
2023/01/12 03:02:00;;;;;;;;;;;;;;;7.35;100.00;100074.47;4925874;29;19944;-61
2023/01/12 03:04:26;;;;;;;;;;;;;;;7.40;100.00;100070.00;4935690;29;20026;-62
2023/01/12 03:06:55;;;;;;;;;;;;;;;7.40;100.00;100069.16;4934775;29;19954;-64
2023/01/12 03:09:21;;;;;;;;;;;;;;;7.38;100.00;100073.50;4935431;29;19923;-61
2023/01/12 03:11:47;;;;;;;;;;;;;;;7.37;100.00;100075.25;4922688;29;20342;-62
2023/01/12 03:14:13;;;;;;;;;;;;;;;7.43;100.00;100077.56;4947483;29;19954;-62
2023/01/12 03:16:39;;;;;;;;;;;;;;;7.51;100.00;100076.41;4948038;29;19918;-61
2023/01/12 03:19:08;;;;;;;;;;;;;;;7.55;100.00;100077.94;4954355;29;19944;-62
2023/01/12 03:21:35;;;;;;;;;;;;;;;7.66;100.00;100073.19;4927853;28;20005;-62
2023/01/12 03:24:06;;;;;;;;;;;;;;;7.72;100.00;100074.66;4934370;29;20362;-62
2023/01/12 03:26:33;;;;;;;;;;;;;;;7.75;100.00;100070.25;4949304;29;20349;-62
2023/01/12 03:29:04;;;;;;;;;;;;;;;7.64;100.00;100053.66;4978261;28;19922;-62
2023/01/12 03:31:30;;;;;;;;;;;;;;;7.65;100.00;100061.28;5008326;28;20293;-61
2023/01/12 03:33:55;;;;;;;;;;;;;;;7.67;100.00;100054.38;5003618;28;19918;-61
2023/01/12 03:36:24;;;;;;;;;;;;;;;7.67;100.00;100056.94;4994518;28;19925;-59
2023/01/12 03:39:09;;;;;;;;;;;;;;;7.65;100.00;100050.22;4994826;28;19921;-59
2023/01/12 03:41:48;;;;;;;;;;;;;;;7.73;100.00;100041.31;5014500;28;19925;-59
2023/01/12 03:44:33;;;;;;;;;;;;;;;7.79;100.00;100047.03;4994873;28;19972;-60
2023/01/12 03:47:02;;;;;;;;;;;;;;;7.83;100.00;100051.97;5019674;28;19925;-60
2023/01/12 03:49:33;;;;;;;;;;;;;;;7.82;100.00;100042.63;4994748;28;20432;-61
2023/01/12 03:52:00;;;;;;;;;;;;;;;7.78;100.00;100040.25;5014568;28;19925;-63
2023/01/12 03:54:26;;;;;;;;;;;;;;;7.81;100.00;100037.56;4993692;28;19960;-60
2023/01/12 03:56:53;;;;;;;;;;;;;;;7.88;100.00;100039.78;5025894;28;19921;-60
2023/01/12 03:59:19;;;;;;;;;;;;;;;7.86;100.00;100036.50;4993169;28;19928;-61
2023/01/12 04:01:44;;;;;;;;;;;;;;;7.81;100.00;100029.91;5001251;28;20458;-60
2023/01/12 04:04:09;;;;;;;;;;;;;;;7.72;100.00;100034.50;4998996;28;20458;-60
2023/01/12 04:06:34;;;;;;;;;;;;;;;7.70;100.00;100027.78;4993504;28;19918;-60
2023/01/12 04:08:59;;;;;;;;;;;;;;;7.69;100.00;100031.25;4993065;28;20416;-60
2023/01/12 04:14:08;;;;;;;;;;;;;;;7.68;100.00;100020.19;4996082;28;20282;-61
2023/01/12 04:16:33;;;;;;;;;;;;;;;7.68;100.00;100029.63;5007054;28;19921;-61
2023/01/12 04:18:58;;;;;;;;;;;;;;;7.63;100.00;100028.97;5001273;28;20020;-60
2023/01/12 04:24:07;;;;;;;;;;;;;;;7.57;100.00;100024.94;4978367;28;19924;-61
2023/01/12 04:26:32;;;;;;;;;;;;;;;7.63;100.00;100023.84;4992277;28;20286;-59
2023/01/12 04:28:57;;;;;;;;;;;;;;;7.64;100.00;100010.16;4993551;28;20432;-59
2023/01/12 04:31:23;;;;;;;;;;;;;;;7.62;100.00;100011.97;5014753;28;19932;-60
2023/01/12 04:33:48;;;;;;;;;;;;;;;7.67;100.00;100012.59;5023819;28;20352;-60
2023/01/12 04:36:14;;;;;;;;;;;;;;;7.65;100.00;100015.19;5003546;28;19922;-62
2023/01/12 04:38:39;;;;;;;;;;;;;;;7.62;100.00;100004.28;5005174;28;19921;-60
2023/01/12 04:41:05;;;;;;;;;;;;;;;7.61;100.00;100000.88;5014852;28;20475;-59
2023/01/12 04:43:31;;;;;;;;;;;;;;;7.59;100.00;99995.81;5028143;28;19929;-60
2023/01/12 04:45:56;;;;;;;;;;;;;;;7.66;100.00;99991.25;5010865;28;19918;-59
2023/01/12 04:48:21;;;;;;;;;;;;;;;7.71;100.00;99991.88;5013295;28;19917;-60
2023/01/12 04:50:48;;;;;;;;;;;;;;;7.65;100.00;99983.66;5014362;28;20436;-60
2023/01/12 04:53:14;;;;;;;;;;;;;;;7.66;100.00;99983.56;5032584;28;19932;-60
2023/01/12 04:55:40;;;;;;;;;;;;;;;7.69;100.00;99975.78;5010473;28;19965;-60
2023/01/12 04:58:06;;;;;;;;;;;;;;;7.70;100.00;99968.91;5003034;28;20025;-60
2023/01/12 05:00:31;;;;;;;;;;;;;;;7.69;100.00;99957.84;4991654;28;20081;-60
2023/01/12 05:02:58;;;;;;;;;;;;;;;7.62;100.00;99960.75;5017694;28;19917;-60
2023/01/12 05:05:24;;;;;;;;;;;;;;;7.64;100.00;99953.81;5025219;28;19945;-60
2023/01/12 05:10:33;;;;;;;;;;;;;;;7.69;100.00;99955.28;4992558;28;19929;-59
2023/01/12 05:12:58;;;;;;;;;;;;;;;7.69;100.00;99944.19;5017016;28;19922;-59
2023/01/12 05:15:23;;;;;;;;;;;;;;;7.65;100.00;99940.13;4993577;28;19988;-60
2023/01/12 05:17:48;;;;;;;;;;;;;;;7.62;100.00;99943.66;5003328;28;19964;-62
2023/01/12 05:20:14;;;;;;;;;;;;;;;7.65;100.00;99935.00;5004915;28;20292;-61
2023/01/12 05:22:39;;;;;;;;;;;;;;;7.58;100.00;99927.59;5009254;28;20391;-60
2023/01/12 05:25:04;;;;;;;;;;;;;;;7.66;100.00;99921.31;5011324;28;19917;-60
2023/01/12 05:27:30;;;;;;;;;;;;;;;7.61;100.00;99930.94;5010500;28;19969;-59
2023/01/12 05:29:58;;;;;;;;;;;;;;;7.66;100.00;99922.13;5011128;28;19956;-60
2023/01/12 05:32:23;;;;;;;;;;;;;;;7.61;100.00;99920.69;5033629;28;19922;-60
2023/01/12 05:34:48;;;;;;;;;;;;;;;7.63;100.00;99919.72;5011836;28;19921;-60
2023/01/12 05:37:13;;;;;;;;;;;;;;;7.73;100.00;99923.53;5003313;28;19921;-61
2023/01/12 05:39:39;;;;;;;;;;;;;;;7.73;100.00;99915.03;5012066;28;20016;-61
2023/01/12 05:44:48;;;;;;;;;;;;;;;7.77;100.00;99921.66;5010714;28;19956;-60
2023/01/12 05:47:13;;;;;;;;;;;;;;;7.80;100.00;99908.72;5011297;28;20284;-59
2023/01/12 05:49:38;;;;;;;;;;;;;;;7.79;100.00;99909.63;5010631;28;19929;-60
2023/01/12 05:52:03;;;;;;;;;;;;;;;7.83;100.00;99907.75;5033228;28;19936;-60
2023/01/12 05:54:30;;;;;;;;;;;;;;;7.86;100.00;99905.03;5010798;28;19929;-60
2023/01/12 05:56:55;;;;;;;;;;;;;;;7.89;100.00;99899.78;5010079;28;19918;-61
2023/01/12 05:59:20;;;;;;;;;;;;;;;7.85;100.00;99901.66;4998337;28;20008;-60
2023/01/12 06:01:46;;;;;;;;;;;;;;;7.92;100.00;99907.31;5017663;28;20380;-61
2023/01/12 06:04:11;;;;;;;;;;;;;;;7.93;100.00;99898.72;5015943;28;19917;-60
2023/01/12 06:06:36;;;;;;;;;;;;;;;7.92;100.00;99899.63;5011952;28;20299;-60
2023/01/12 06:09:02;;;;;;;;;;;;;;;7.86;100.00;99900.75;5011379;28;19923;-61
2023/01/12 06:14:11;;;;;;;;;;;;;;;7.81;100.00;99895.00;4992141;28;19924;-60
2023/01/12 06:16:38;;;;;;;;;;;;;;;7.75;100.00;99885.03;5010808;28;19918;-61
2023/01/12 06:19:03;;;;;;;;;;;;;;;7.70;100.00;99885.28;5010872;28;19944;-60
2023/01/12 06:21:30;;;;;;;;;;;;;;;7.73;100.00;99885.13;5024734;28;20404;-60
2023/01/12 06:23:55;;;;;;;;;;;;;;;7.73;100.00;99891.97;5020222;28;19918;-61
2023/01/12 06:26:21;;;;;;;;;;;;;;;7.70;100.00;99879.31;5011404;28;20024;-61
2023/01/12 06:28:46;;;;;;;;;;;;;;;7.65;100.00;99876.94;5004781;28;19918;-60
2023/01/12 06:31:11;;;;;;;;;;;;;;;7.63;100.00;99876.22;5000726;28;19921;-60
2023/01/12 06:33:37;;;;;;;;;;;;;;;7.69;100.00;99867.41;5006328;28;19949;-60
2023/01/12 06:36:02;;;;;;;;;;;;;;;7.65;100.00;99859.03;4992480;28;20106;-60
2023/01/12 06:38:29;;;;;;;;;;;;;;;7.64;100.00;99859.94;5012026;28;19924;-60
2023/01/12 06:40:59;;;;;;;;;;;;;;;7.56;100.00;99859.47;5015754;28;20420;-61
2023/01/12 06:43:24;;;;;;;;;;;;;;;7.62;100.00;99864.31;5028278;28;19926;-62
2023/01/12 06:45:51;;;;;;;;;;;;;;;7.61;100.00;99865.19;4998120;28;19945;-68
2023/01/12 06:48:17;;;;;;;;;;;;;;;7.72;100.00;99857.84;5010405;28;19917;-60
2023/01/12 06:50:42;;;;;;;;;;;;;;;7.58;100.00;99868.72;5011514;28;20316;-61
2023/01/12 06:53:08;;;;;;;;;;;;;;;7.50;100.00;99863.13;5032157;28;20330;-60
2023/01/12 06:55:33;;;;;;;;;;;;;;;7.54;100.00;99871.50;5003368;28;19924;-60
2023/01/12 06:58:03;;;;;;;;;;;;;;;7.61;100.00;99862.63;5004364;28;19922;-60
2023/01/12 07:00:29;;;;;;;;;;;;;;;7.63;100.00;99876.22;4999996;28;19921;-61
2023/01/12 07:02:54;;;;;;;;;;;;;;;7.64;100.00;99874.47;5013639;28;20294;-61
2023/01/12 07:05:19;;;;;;;;;;;;;;;7.63;100.00;99873.66;5004889;28;19922;-61
2023/01/12 07:07:44;;;;;;;;;;;;;;;7.62;100.00;99869.41;4998796;28;20341;-61
2023/01/12 07:10:10;;;;;;;;;;;;;;;7.64;100.00;99859.94;4999956;28;19929;-62
2023/01/12 07:12:36;;;;;;;;;;;;;;;7.67;100.00;99864.09;5016417;28;19961;-62
2023/01/12 07:15:02;;;;;;;;;;;;;;;7.64;100.00;99846.31;5008823;28;20368;-61
2023/01/12 07:17:27;;;;;;;;;;;;;;;7.71;100.00;99851.06;5006103;28;19918;-61
2023/01/12 07:19:53;;;;;;;;;;;;;;;7.73;100.00;99851.81;5013550;28;20015;-62
2023/01/12 07:22:18;;;;;;;;;;;;;;;7.63;100.00;99853.16;5031051;28;19943;-61
2023/01/12 07:24:43;;;;;;;;;;;;;;;7.63;100.00;99862.56;5007046;28;19917;-62
2023/01/12 07:27:08;;;;;;;;;;;;;;;7.70;100.00;99848.56;5008714;28;20068;-61
2023/01/12 07:29:33;;;;;;;;;;;;;;;7.68;100.00;99846.09;5013970;28;20008;-61
2023/01/12 07:32:00;;;;;;;;;;;;;;;7.56;100.00;99841.53;5015510;28;20052;-61
2023/01/12 07:34:25;;;;;;;;;;;;;;;7.50;100.00;99837.53;5001804;28;20391;-71
2023/01/12 07:36:51;;;;;;;;;;;;;;;7.41;100.00;99835.41;4998604;28;19918;-60
2023/01/12 07:39:16;;;;;;;;;;;;;;;7.39;100.00;99838.03;5004379;28;19971;-60
2023/01/12 07:44:25;;;;;;;;;;;;;;;7.43;100.00;99838.72;4996411;28;19944;-59
2023/01/12 07:46:50;;;;;;;;;;;;;;;7.38;100.00;99831.25;4998896;28;20377;-61
2023/01/12 07:49:15;;;;;;;;;;;;;;;7.41;100.00;99832.84;5002660;28;19918;-63
2023/01/12 07:51:41;;;;;;;;;;;;;;;7.30;100.00;99819.72;5014225;28;19929;-62
2023/01/12 07:54:06;;;;;;;;;;;;;;;7.25;100.00;99822.47;5008096;28;19948;-62
2023/01/12 07:56:31;;;;;;;;;;;;;;;7.26;100.00;99824.94;4997964;28;19940;-62
2023/01/12 07:58:56;;;;;;;;;;;;;;;7.23;100.00;99824.25;5003972;28;20366;-62
2023/01/12 08:01:21;;;;;;;;;;;;;;;7.21;100.00;99823.53;4940599;28;19925;-62
2023/01/12 08:03:47;;;;;;;;;;;;;;;7.21;100.00;99833.75;5009961;28;20592;-62
2023/01/12 08:06:12;;;;;;;;;;;;;;;7.17;100.00;99829.66;5008629;28;19931;-62
2023/01/12 08:08:37;;;;;;;;;;;;;;;7.21;100.00;99834.56;5005843;28;19979;-62
2023/01/12 08:11:03;;;;;;;;;;;;;;;7.24;100.00;99836.16;5016886;28;20003;-62
2023/01/12 08:13:29;;;;;;;;;;;;;;;7.21;100.00;99828.63;5024536;28;19918;-62
2023/01/12 08:15:54;;;;;;;;;;;;;;;7.23;100.00;99825.09;5011872;28;20110;-62
2023/01/12 08:18:22;;;;;;;;;;;;;;;7.32;100.00;99834.09;5017078;28;19921;-61
2023/01/12 08:20:48;;;;;;;;;;;;;;;7.35;100.00;99833.94;5002429;28;19921;-62
2023/01/12 08:23:16;;;;;;;;;;;;;;;7.43;100.00;99847.22;5010400;28;20276;-62
2023/01/12 08:25:44;;;;;;;;;;;;;;;7.40;100.00;99839.66;4998094;28;19975;-62
2023/01/12 08:28:11;;;;;;;;;;;;;;;7.43;100.00;99842.09;5032201;28;19918;-63
2023/01/12 08:30:36;;;;;;;;;;;;;;;7.41;100.00;99838.78;4997080;28;19925;-63
2023/01/12 08:33:01;;;;;;;;;;;;;;;7.48;100.00;99824.00;5024848;28;20445;-65
2023/01/12 08:35:28;;;;;;;;;;;;;;;7.56;100.00;99824.44;5003432;28;19922;-63
2023/01/12 08:37:54;;;;;;;;;;;;;;;7.62;100.00;99818.22;4981944;28;19922;-62
2023/01/12 08:40:19;;;;;;;;;;;;;;;7.67;100.00;99818.00;4995199;28;20009;-64
2023/01/12 08:42:44;;;;;;;;;;;;;;;7.64;100.00;99830.94;5012329;28;20403;-63
2023/01/12 08:45:10;;;;;;;;;;;;;;;7.67;100.00;99836.75;4997096;28;19926;-62
2023/01/12 08:47:36;;;;;;;;;;;;;;;7.75;100.00;99834.66;5006897;28;20453;-64
2023/01/12 08:50:01;;;;;;;;;;;;;;;7.73;100.00;99845.88;5010618;28;19918;-62
2023/01/12 08:52:31;;;;;;;;;;;;;;;7.80;100.00;99837.03;4998274;28;19930;-62
2023/01/12 08:54:57;;;;;;;;;;;;;;;7.81;100.00;99845.53;4991950;28;20263;-63
2023/01/12 08:57:22;;;;;;;;;;;;;;;7.81;100.00;99843.78;4990240;28;19976;-63
2023/01/12 08:59:47;;;;;;;;;;;;;;;7.85;100.00;99849.59;4974389;28;20360;-62
2023/01/12 09:02:13;;;;;;;;;;;;;;;7.96;100.00;99847.34;5013919;28;19928;-63
2023/01/12 09:04:39;;;;;;;;;;;;;;;7.94;100.00;99844.03;4982973;28;19917;-63
2023/01/12 09:07:05;;;;;;;;;;;;;;;7.93;100.00;99841.56;5006113;28;20345;-63
2023/01/12 09:09:30;;;;;;;;;;;;;;;7.86;100.00;99839.28;5012797;28;19952;-63
2023/01/12 09:11:55;;;;;;;;;;;;;;;7.91;100.00;99839.06;5017079;28;19925;-63
2023/01/12 09:14:20;;;;;;;;;;;;;;;7.88;100.00;99828.97;5003874;28;19921;-63
2023/01/12 09:16:46;;;;;;;;;;;;;;;7.82;100.00;99837.75;5005617;28;19918;-62
2023/01/12 09:19:11;;;;;;;;;;;;;;;7.85;100.00;99841.91;5005492;28;19957;-63
2023/01/12 09:21:37;;;;;;;;;;;;;;;7.89;100.00;99835.75;5022931;28;20465;-65
2023/01/12 09:24:03;;;;;;;;;;;;;;;7.88;100.00;99840.03;5013944;28;20613;-62
2023/01/12 09:26:32;;;;;;;;;;;;;;;7.98;100.00;99827.63;5006745;28;19932;-63
2023/01/12 09:28:58;;;;;;;;;;;;;;;7.99;100.00;99826.72;5000790;28;20016;-64
2023/01/12 09:31:24;;;;;;;;;;;;;;;8.08;100.00;99833.13;5003122;28;20011;-63
2023/01/12 09:33:49;;;;;;;;;;;;;;;8.13;100.00;99833.72;5000837;28;19924;-62
2023/01/12 09:36:19;;;;;;;;;;;;;;;8.17;100.00;99824.16;4999470;28;19917;-62
2023/01/12 09:38:45;;;;;;;;;;;;;;;8.20;100.00;99832.53;4995284;28;19918;-63
2023/01/12 09:46:58;;;;;;;;;;;;;;;8.48;100.00;99831.19;4996363;28;20071;-64
2023/01/12 09:49:29;;;;;;;;;;;;;;;8.54;100.00;99840.31;4998452;28;19996;-63
2023/01/12 09:51:58;;;;;;;;;;;;;;;8.67;100.00;99831.09;5016599;28;19920;-63
2023/01/12 09:54:24;;;;;;;;;;;;;;;8.79;100.00;99826.25;4998750;28;19928;-64
2023/01/12 09:56:55;;;;;;;;;;;;;;;8.86;100.00;99830.16;5026608;28;19921;-63
2023/01/12 09:59:50;;;;;;;;;;;;;;;8.94;100.00;99828.00;4991171;28;19928;-63
2023/01/12 10:02:15;;;;;;;;;;;;;;;8.93;100.00;99815.25;4980301;28;20238;-63
2023/01/12 10:04:41;;;;;;;;;;;;;;;8.86;100.00;99840.41;4992673;28;20436;-63
2023/01/12 10:07:13;;;;;;;;;;;;;;;8.84;100.00;99832.81;4992423;28;20409;-63
2023/01/12 10:09:39;;;;;;;;;;;;;;;8.88;100.00;99823.19;4992551;28;20302;-64
2023/01/12 10:12:21;;;;;;;;;;;;;;;8.82;100.00;99834.63;4995635;28;19928;-64
2023/01/12 10:14:55;;;;;;;;;;;;;;;8.76;100.00;99829.81;4991963;28;19917;-62
2023/01/12 10:17:24;;;;;;;;;;;;;;;8.82;100.00;99834.63;4991887;28;20361;-62
2023/01/12 10:19:55;;;;;;;;;;;;;;;8.90;100.00;99829.09;5022875;28;20361;-67
2023/01/12 10:22:36;;;;;;;;;;;;;;;9.04;100.00;99829.19;5011044;28;20099;-63
2023/01/12 10:25:21;;;;;;;;;;;;;;;9.12;100.00;99836.50;5012235;28;19929;-63
2023/01/12 10:27:48;;;;;;;;;;;;;;;9.07;100.00;99845.31;4987284;28;19918;-63
2023/01/12 10:30:15;;;;;;;;;;;;;;;8.92;100.00;99846.94;4975393;28;20353;-63
2023/01/12 10:32:40;;;;;;;;;;;;;;;8.79;100.00;99845.00;5036796;28;19918;-64
2023/01/12 10:35:11;;;;;;;;;;;;;;;8.90;100.00;99848.78;5004128;28;20292;-63
2023/01/12 10:37:51;;;;;;;;;;;;;;;8.91;100.00;99850.44;5003227;28;19930;-65
2023/01/12 10:40:22;;;;;;;;;;;;;;;8.89;100.00;99855.63;4999363;28;19917;-63
2023/01/12 10:45:34;;;;;;;;;;;;;;;8.67;100.00;99845.63;4995473;28;20024;-63
2023/01/12 10:48:14;;;;;;;;;;;;;;;8.65;100.00;99850.03;4998772;28;20012;-63
2023/01/12 10:50:41;;;;;;;;;;;;;;;8.70;100.00;99843.75;5024557;28;19925;-64
2023/01/12 10:53:12;;;;;;;;;;;;;;;8.62;100.00;99840.75;5005036;28;19980;-64
2023/01/12 10:55:38;;;;;;;;;;;;;;;8.64;100.00;99838.94;4999716;28;19983;-63
2023/01/12 10:58:05;;;;;;;;;;;;;;;8.73;100.00;99832.50;5000442;28;20055;-63
2023/01/12 11:00:30;;;;;;;;;;;;;;;8.72;100.00;99828.31;4993189;28;19933;-66
2023/01/12 11:02:56;;;;;;;;;;;;;;;8.81;100.00;99827.00;5007553;28;19925;-64
2023/01/12 11:05:37;;;;;;;;;;;;;;;8.93;100.00;99823.81;4994979;28;19924;-64
2023/01/12 11:08:19;;;;;;;;;;;;;;;8.95;100.00;99810.88;4994024;28;19936;-63
2023/01/12 11:10:45;;;;;;;;;;;;;;;9.09;100.00;99810.16;4993946;28;19925;-65
2023/01/12 11:13:22;;;;;;;;;;;;;;;9.14;100.00;99823.56;5015906;28;19928;-64
2023/01/12 11:16:01;;;;;;;;;;;;;;;9.12;100.00;99815.16;5024065;28;20396;-63
2023/01/12 11:18:37;;;;;;;;;;;;;;;9.20;100.00;99807.84;5011105;28;20336;-64
2023/01/12 11:21:07;;;;;;;;;;;;;;;9.48;100.00;99802.06;5023716;28;20226;-63
2023/01/12 11:23:38;;;;;;;;;;;;;;;9.60;100.00;99798.00;5010875;28;19918;-62
2023/01/12 11:26:08;;;;;;;;;;;;;;;9.48;100.00;99804.63;5012847;28;19922;-63
2023/01/12 11:28:37;;;;;;;;;;;;;;;9.43;100.00;99798.91;5031489;28;19918;-63
2023/01/12 11:31:18;;;;;;;;;;;;;;;9.44;100.00;99797.16;5024417;28;20008;-63
2023/01/12 11:33:54;;;;;;;;;;;;;;;9.44;100.00;99810.84;4996743;28;19925;-65
2023/01/12 11:36:25;;;;;;;;;;;;;;;9.47;100.00;99807.28;4999298;28;20016;-63
2023/01/12 11:38:54;;;;;;;;;;;;;;;9.40;100.00;99814.47;5006782;28;19917;-63
2023/01/12 11:41:29;;;;;;;;;;;;;;;9.33;100.00;99806.28;5013317;28;19921;-63
2023/01/12 11:44:01;;;;;;;;;;;;;;;9.38;100.00;99813.75;5014495;28;20099;-63
2023/01/12 11:46:33;;;;;;;;;;;;;;;9.34;100.00;99814.78;5004112;28;20012;-65
2023/01/12 11:49:11;;;;;;;;;;;;;;;9.38;100.00;99808.59;5008971;28;19944;-64
2023/01/12 11:51:37;;;;;;;;;;;;;;;9.35;100.00;99811.31;5027764;28;19929;-67
2023/01/12 11:54:03;;;;;;;;;;;;;;;9.28;100.00;99815.97;5007380;28;19928;-63
2023/01/12 11:56:47;;;;;;;;;;;;;;;9.19;100.00;99801.91;5006259;28;19918;-63
2023/01/12 11:59:28;;;;;;;;;;;;;;;9.12;100.00;99813.38;4996216;28;19918;-65
2023/01/12 12:02:00;;;;;;;;;;;;;;;9.17;100.00;99816.53;4984225;28;19925;-65
2023/01/12 12:04:25;;;;;;;;;;;;;;;9.27;100.00;99809.19;4998626;28;19921;-65
2023/01/12 12:06:52;;;;;;;;;;;;;;;9.17;100.00;99797.75;5008452;28;19922;-64
2023/01/12 12:09:20;;;;;;;;;;;;;;;9.06;100.00;99802.63;4985728;28;19949;-65
2023/01/12 12:11:59;;;;;;;;;;;;;;;8.99;100.00;99802.97;4997579;28;19918;-62
2023/01/12 12:14:40;;;;;;;;;;;;;;;8.91;100.00;99797.41;5003687;28;20393;-63
2023/01/12 12:17:08;;;;;;;;;;;;;;;8.95;100.00;99796.31;5035360;28;19917;-63
2023/01/12 12:19:48;;;;;;;;;;;;;;;8.91;100.00;99789.69;4997291;28;19918;-62
2023/01/12 12:22:22;;;;;;;;;;;;;;;8.97;100.00;99788.56;5015614;28;19995;-63
2023/01/12 12:24:58;;;;;;;;;;;;;;;8.99;100.00;99779.03;4997244;28;19933;-64
2023/01/12 12:27:24;;;;;;;;;;;;;;;9.00;100.00;99778.13;4993920;28;19925;-63
2023/01/12 12:30:11;;;;;;;;;;;;;;;8.98;100.00;99774.81;5030686;28;20301;-62
2023/01/12 12:32:37;;;;;;;;;;;;;;;9.02;100.00;99772.00;5002058;28;19984;-63
2023/01/12 12:35:02;;;;;;;;;;;;;;;9.00;100.00;99771.25;5024221;28;19963;-65
2023/01/12 12:37:36;;;;;;;;;;;;;;;8.93;100.00;99767.38;5024426;28;19921;-65
2023/01/12 12:40:01;;;;;;;;;;;;;;;9.00;100.00;99768.69;5004269;28;19932;-65
2023/01/12 12:45:42;;;;;;;;;;;;;;;9.14;100.00;99755.13;4993965;28;19944;-63
2023/01/12 12:48:16;;;;;;;;;;;;;;;9.26;100.00;99751.06;5038202;28;19921;-64
2023/01/12 12:50:48;;;;;;;;;;;;;;;9.29;100.00;99747.50;4998069;28;19930;-64
2023/01/12 12:53:28;;;;;;;;;;;;;;;9.28;100.00;99745.81;5022518;28;19924;-63
2023/01/12 12:55:56;;;;;;;;;;;;;;;9.22;100.00;99744.44;4994518;28;19918;-64
2023/01/12 12:58:21;;;;;;;;;;;;;;;9.24;100.00;99739.22;4993852;28;19967;-63
2023/01/12 13:00:50;;;;;;;;;;;;;;;9.16;100.00;99735.31;4999065;28;20032;-64
2023/01/12 13:03:34;;;;;;;;;;;;;;;9.29;100.00;99726.94;5013316;28;19918;-63
2023/01/12 13:06:28;;;;;;;;;;;;;;;9.36;100.00;99736.81;4996971;28;19922;-64
2023/01/12 13:08:53;;;;;;;;;;;;;;;9.39;100.00;99723.00;4952318;28;20285;-64
2023/01/12 13:11:19;;;;;;;;;;;;;;;9.42;100.00;99720.22;4948830;28;20374;-64
2023/01/12 13:14:02;;;;;;;;;;;;;;;9.44;100.00;99728.69;4949623;28;19957;-63
2023/01/12 13:16:29;;;;;;;;;;;;;;;9.46;100.00;99720.88;4948526;28;19946;-63
2023/01/12 13:18:55;;;;;;;;;;;;;;;9.57;100.00;99725.44;4949806;28;20366;-64
2023/01/12 13:21:26;;;;;;;;;;;;;;;9.64;100.00;99726.75;4941390;28;20429;-66
2023/01/12 13:24:09;;;;;;;;;;;;;;;9.71;100.00;99733.16;4955298;28;19926;-65
2023/01/12 13:26:34;;;;;;;;;;;;;;;9.68;100.00;99731.59;4946289;28;19923;-63
2023/01/12 13:29:18;;;;;;;;;;;;;;;9.62;100.00;99719.09;4947058;28;19923;-64